Time;durP1;ratioP1;P1;durP2;ratioP2;P2;SDS_P1;SDS_P2;PMS_P1;PMS_P2;Temp;Humidity;BMP_temperature;BMP_pressure;BME280_temperature;BME280_humidity;BME280_pressure;Samples;Min_cycle;Max_cycle;Signal;HPM_P1;HPM_P2
2022/12/04 00:01:51;;;;;;;19.27;8.77;;;;;;;-5.07;57.50;102723.25;6058152;23;20029;-89
2022/12/04 00:04:33;;;;;;;23.08;9.48;;;;;;;-5.39;57.75;102661.91;6057545;23;20093;-92
2022/12/04 00:07:27;;;;;;;22.08;8.98;;;;;;;-4.97;57.32;102719.72;6145071;23;20025;-90
2022/12/04 00:09:58;;;;;;;22.50;8.80;;;;;;;-5.27;57.18;102663.53;6147897;23;20080;-91
2022/12/04 00:12:25;;;;;;;20.70;8.65;;;;;;;-5.17;57.32;102693.81;6115370;23;20020;-92
2022/12/04 00:15:00;;;;;;;;;;;;;;;-5.01;56.90;102712.06;6141756;23;20013;-90
2022/12/04 00:17:52;;;;;;;24.08;8.70;;;;;;;-5.09;57.12;102720.72;6142670;23;19967;-93
2022/12/04 00:20:39;;;;;;;21.80;9.23;;;;;;;-5.55;57.41;102659.66;6145859;23;20025;-92
2022/12/04 00:23:34;;;;;;;;;;;;;;;-5.26;57.54;102713.25;6141325;23;20465;-92
2022/12/04 00:26:35;;;;;;;;;;;;;;;-5.26;57.65;102707.94;6188046;23;20235;-88
2022/12/04 00:29:02;;;;;;;20.70;8.52;;;;;;;-5.64;57.86;102689.69;6138909;23;19920;-90
2022/12/04 00:32:18;;;;;;;17.40;7.53;;;;;;;-5.86;57.64;102637.28;6174223;23;20104;-90
2022/12/04 00:34:56;;;;;;;19.25;8.27;;;;;;;-6.10;57.56;102610.81;6160124;23;20025;-91
2022/12/04 00:37:22;;;;;;;21.83;9.60;;;;;;;-5.53;57.27;102695.88;6218034;23;20008;-92
2022/12/04 00:44:09;;;;;;;24.42;9.63;;;;;;;-5.86;57.38;102655.94;6238451;23;20116;-89
2022/12/04 00:49:42;;;;;;;28.10;9.32;;;;;;;-6.34;57.47;102587.84;6235600;23;20028;-91
2022/12/04 00:52:09;;;;;;;22.10;9.43;;;;;;;-5.75;57.24;102670.09;6188465;23;20077;-90
2022/12/04 00:54:56;;;;;;;17.67;8.57;;;;;;;-5.79;57.49;102697.97;6183017;23;20023;-92
2022/12/04 00:57:28;;;;;;;31.17;9.55;;;;;;;-5.97;57.81;102675.47;6176887;23;20016;-90
2022/12/04 00:59:54;;;;;;;21.25;9.00;;;;;;;-5.85;57.74;102700.28;6168972;23;20016;-90
2022/12/04 01:02:20;;;;;;;21.90;8.93;;;;;;;-5.95;57.60;102685.03;6193687;23;20028;-91
2022/12/04 01:04:49;;;;;;;18.58;8.77;;;;;;;-5.82;57.25;102686.72;6167948;23;20016;-91
2022/12/04 01:07:16;;;;;;;26.90;8.95;;;;;;;-5.84;57.08;102677.97;6144346;23;20024;-93
2022/12/04 01:10:19;;;;;;;19.60;8.63;;;;;;;-5.75;57.23;102722.53;6144083;23;20017;-92
2022/12/04 01:12:57;;;;;;;25.77;9.80;;;;;;;-6.32;57.92;102638.28;6151982;22;20024;-91
2022/12/04 01:16:13;;;;;;;28.13;10.05;;;;;;;-5.80;57.83;102720.22;6168807;23;20063;-92
2022/12/04 01:19:25;;;;;;;21.83;8.93;;;;;;;-5.91;57.80;102728.25;6146616;23;20016;-91
2022/12/04 01:22:04;;;;;;;25.90;8.77;;;;;;;-6.03;57.62;102681.28;6210383;23;20000;-91
2022/12/04 01:24:30;;;;;;;20.60;8.65;;;;;;;-5.98;57.69;102703.94;6167431;23;20016;-90
2022/12/04 01:26:56;;;;;;;23.45;9.00;;;;;;;-6.04;57.11;102677.78;6158173;23;20031;-90
2022/12/04 01:29:52;;;;;;;23.52;10.05;;;;;;;-5.80;57.39;102730.03;6154279;23;20013;-93
2022/12/04 01:32:18;;;;;;;17.77;8.65;;;;;;;-6.39;57.23;102644.13;6144428;23;20009;-92
2022/12/04 01:34:44;;;;;;;26.50;9.13;;;;;;;-5.74;57.32;102737.56;6169162;23;20017;-89
2022/12/04 01:37:10;;;;;;;21.27;8.98;;;;;;;-5.99;56.74;102694.25;6145524;23;20467;-91
2022/12/04 01:39:37;;;;;;;18.73;8.68;;;;;;;-6.06;56.65;102703.69;6143359;23;20108;-93
2022/12/04 01:42:14;;;;;;;23.90;9.18;;;;;;;-6.24;57.05;102660.69;6168356;23;20016;-91
2022/12/04 01:45:21;;;;;;;21.83;8.55;;;;;;;-5.85;56.72;102725.09;6143200;23;20447;-93
2022/12/04 01:47:57;;;;;;;25.73;8.85;;;;;;;-5.96;56.31;102699.34;6168605;23;20021;-91
2022/12/04 01:51:04;;;;;;;21.73;8.68;;;;;;;-5.79;56.47;102740.59;6143674;23;20021;-90
2022/12/04 01:53:32;;;;;;;21.58;9.02;;;;;;;-5.88;56.60;102743.13;6144132;23;20028;-91
2022/12/04 01:55:59;;;;;;;20.13;8.50;;;;;;;-6.23;56.58;102669.53;6195285;23;20024;-92
2022/12/04 01:58:32;;;;;;;22.20;9.60;;;;;;;-6.30;56.32;102661.19;6145138;23;20013;-93
2022/12/04 02:01:48;;;;;;;20.95;8.32;;;;;;;-5.93;56.68;102733.72;6145063;23;20016;-91
2022/12/04 02:04:14;;;;;;;22.75;9.30;;;;;;;-6.30;56.27;102658.53;6153961;23;20021;-93
2022/12/04 02:06:40;;;;;;;17.92;8.40;;;;;;;-6.04;56.19;102687.59;6169310;23;20102;-93
2022/12/04 02:09:11;;;;;;;24.60;9.05;;;;;;;-6.23;56.34;102658.88;6127973;23;20104;-94
2022/12/04 02:12:05;;;;;;;21.70;8.60;;;;;;;-6.08;56.30;102684.31;6080444;23;20392;-89
2022/12/04 02:15:19;;;;;;;21.92;8.77;;;;;;;-5.87;56.33;102737.69;6129399;23;20635;-90
2022/12/04 02:21:31;;;;;;;19.00;8.65;;;;;;;-5.97;56.30;102710.09;6103384;23;20020;-92
2022/12/04 02:24:26;;;;;;;23.05;9.48;;;;;;;-6.30;56.14;102655.84;6080095;23;20025;-91
2022/12/04 02:30:20;;;;;;;21.85;8.73;;;;;;;-6.48;56.45;102646.66;6193336;23;20012;-91
2022/12/04 02:33:08;;;;;;;23.70;9.50;;;;;;;-5.96;56.74;102730.44;6143218;23;20017;-93
2022/12/04 02:36:24;;;;;;;21.10;8.23;;;;;;;-6.68;56.71;102618.94;6170796;23;20069;-91
2022/12/04 02:39:28;;;;;;;21.77;8.85;;;;;;;-5.95;56.39;102721.50;6133143;23;20062;-93
2022/12/04 02:42:39;;;;;;;18.55;8.23;;;;;;;-6.29;56.52;102693.97;6170998;23;20016;-91
2022/12/04 02:45:10;;;;;;;19.42;8.50;;;;;;;-6.48;56.30;102657.31;6170697;23;20013;-92
2022/12/04 02:47:39;;;;;;;24.73;8.65;;;;;;;-6.66;56.60;102640.94;6171988;23;20024;-92
2022/12/04 02:50:13;;;;;;;23.52;8.48;;;;;;;-6.72;56.57;102639.63;6171206;23;20013;-89
2022/12/04 02:54:06;;;;;;;21.88;8.75;;;;;;;-6.55;56.54;102669.41;6203423;23;20031;-91
2022/12/04 03:00:15;;;;;;;18.08;8.60;;;;;;;-6.66;56.55;102675.53;6190945;23;20024;-90
2022/12/04 03:03:18;;;;;;;;;;;;;;;-6.33;57.02;102748.44;6192631;23;20021;-89
2022/12/04 03:06:14;;;;;;;21.50;8.65;;;;;;;-6.71;56.21;102653.75;6167954;23;19915;-92
2022/12/04 03:09:03;;;;;;;23.42;9.57;;;;;;;-6.23;56.54;102742.28;6125690;23;20370;-91
2022/12/04 03:15:22;;;;;;;20.77;8.50;;;;;;;-6.86;56.19;102653.94;6078366;23;20022;-92
2022/12/04 03:18:17;;;;;;;24.80;9.07;;;;;;;-6.27;56.19;102747.97;6103521;23;20025;-89
2022/12/04 03:20:58;;;;;;;24.25;9.73;;;;;;;-6.68;55.93;102682.78;6106637;23;20022;-92
2022/12/04 03:24:10;;;;;;;25.88;8.43;;;;;;;-6.24;55.84;102753.06;6109745;23;20024;-90
2022/12/04 03:30:10;;;;;;;27.48;8.30;;;;;;;-6.29;56.19;102749.88;6075381;23;20079;-92
2022/12/04 03:33:02;;;;;;;24.58;8.82;;;;;;;-6.83;56.37;102663.50;6107595;23;20041;-92
2022/12/04 03:35:53;;;;;;;20.80;9.20;;;;;;;-6.55;56.02;102718.16;6107294;23;20041;-93
2022/12/04 03:38:32;;;;;;;22.10;9.35;;;;;;;-6.30;56.10;102740.22;6105997;23;20018;-92
2022/12/04 03:41:23;;;;;;;23.00;10.05;;;;;;;-6.28;56.01;102754.25;6131610;23;20084;-90
2022/12/04 03:44:52;;;;;;;23.10;8.30;;;;;;;-6.32;55.97;102751.00;6081869;23;20021;-92
2022/12/04 03:47:38;;;;;;;19.88;7.68;;;;;;;-6.86;55.78;102704.47;6101815;23;20050;-93
2022/12/04 03:50:10;;;;;;;22.53;7.73;;;;;;;-6.73;56.31;102711.53;6076727;23;20024;-89
2022/12/04 04:02:01;;;;;;;19.35;8.27;;;;;;;-6.89;55.64;102667.50;6152517;23;20108;-91
2022/12/04 04:05:36;;;;;;;22.23;8.93;;;;;;;-6.35;55.86;102764.53;6194902;23;20011;-90
2022/12/04 04:08:26;;;;;;;20.70;8.30;;;;;;;-7.10;55.65;102629.22;6163733;23;20004;-90
2022/12/04 04:11:11;;;;;;;20.83;8.82;;;;;;;-6.79;55.36;102696.03;6158698;23;20451;-90
2022/12/04 04:25:25;;;;;;;28.30;8.90;;;;;;;-7.09;56.01;102668.13;6212065;23;20107;-93
2022/12/04 04:27:56;;;;;;;23.10;9.05;;;;;;;-6.63;56.24;102732.00;6158102;23;20021;-91
2022/12/04 04:30:24;;;;;;;22.63;10.13;;;;;;;-7.00;55.54;102663.94;6144045;23;20024;-90
2022/12/04 04:36:56;;;;;;;22.55;8.75;;;;;;;-6.45;55.53;102767.06;6194164;23;20032;-91
2022/12/04 04:39:42;;;;;;;20.33;8.20;;;;;;;-6.95;55.64;102693.72;6172155;23;20039;-91
2022/12/04 04:42:29;;;;;;;23.92;8.25;;;;;;;-6.30;55.57;102782.81;6172801;23;20069;-90
2022/12/04 04:44:55;;;;;;;21.02;9.30;;;;;;;-6.33;55.84;102786.56;6151156;23;20416;-91
2022/12/04 04:47:44;;;;;;;22.30;9.68;;;;;;;-6.50;55.61;102747.06;6123264;23;20024;-92
2022/12/04 04:50:16;;;;;;;25.23;8.85;;;;;;;-6.35;55.58;102782.31;6180904;23;20015;-90
2022/12/04 05:00:22;;;;;;;19.80;8.27;;;;;;;-6.64;55.87;102761.41;6222142;22;20055;-89
2022/12/04 05:02:49;;;;;;;16.85;8.43;;;;;;;-7.02;55.67;102687.13;6132846;23;20024;-94
2022/12/04 05:05:18;;;;;;;19.47;8.23;;;;;;;-7.00;55.29;102686.06;6130952;23;20079;-90
2022/12/04 05:07:55;;;;;;;22.75;8.55;;;;;;;-6.77;55.82;102750.00;6159403;23;20023;-89
2022/12/04 05:11:32;;;;;;;24.83;9.65;;;;;;;-6.46;56.00;102781.31;6235794;23;20085;-90
2022/12/04 05:14:40;;;;;;;21.13;8.32;;;;;;;-6.84;55.65;102712.38;6208456;23;20466;-93
2022/12/04 05:17:06;;;;;;;20.77;8.32;;;;;;;-6.72;55.92;102758.47;6180125;23;20085;-93
2022/12/04 05:19:53;;;;;;;21.98;8.63;;;;;;;-7.11;56.02;102673.56;6181187;23;20103;-93
2022/12/04 05:22:52;;;;;;;23.17;10.13;;;;;;;-7.12;55.44;102677.22;6182596;23;20016;-88
2022/12/04 05:25:29;;;;;;;25.23;9.70;;;;;;;-6.74;55.76;102768.41;6171888;23;20023;-86
2022/12/04 05:27:57;;;;;;;23.77;10.20;;;;;;;-7.13;55.58;102680.81;6177444;23;20021;-91
2022/12/04 05:30:23;;;;;;;25.17;9.80;;;;;;;-7.03;55.53;102723.53;6155388;23;20079;-89
2022/12/04 05:32:49;;;;;;;18.52;8.30;;;;;;;-7.15;55.49;102687.19;6188060;23;20023;-88
2022/12/04 05:35:44;;;;;;;20.02;9.32;;;;;;;-6.51;55.54;102809.25;6186544;23;20068;-88
2022/12/04 05:38:10;;;;;;;22.45;8.75;;;;;;;-6.99;55.63;102719.66;6183910;23;20021;-89
2022/12/04 05:40:36;;;;;;;30.00;9.02;;;;;;;-6.79;55.21;102746.59;6133696;23;20020;-91
2022/12/04 05:46:09;;;;;;;25.48;9.00;;;;;;;-6.33;55.11;102825.63;6209530;23;20108;-91
2022/12/04 05:51:53;;;;;;;28.98;10.55;;;;;;;-6.79;54.99;102736.78;6209320;22;20045;-92
2022/12/04 06:54:26;;;;;;;19.65;8.60;;;;;;;-6.39;54.61;102792.34;6198060;23;20036;-90
2022/12/04 06:57:24;;;;;;;23.13;8.60;;;;;;;-6.00;54.48;102838.19;6108467;23;20064;-92
2022/12/04 07:03:09;;;;;;;38.22;9.15;;;;;;;-6.48;54.23;102769.94;5140134;22;25281366;-92
2022/12/04 07:05:43;;;;;;;26.77;9.68;;;;;;;-6.79;54.39;102733.28;6183484;23;20068;-90
2022/12/04 07:08:44;;;;;;;28.05;9.73;;;;;;;-6.46;54.41;102781.31;6135739;23;20021;-91
2022/12/04 07:14:44;;;;;;;32.17;10.23;;;;;;;-6.18;54.21;102854.63;6209857;23;20088;-91
2022/12/04 07:27:18;;;;;;;27.20;10.43;;;;;;;-6.05;54.77;102856.38;6242219;23;20040;-91
2022/12/04 07:30:59;;;;;;;25.23;10.13;;;;;;;-6.12;54.33;102866.63;6101689;23;20018;-89
2022/12/04 08:13:17;;;;;;;26.90;8.90;;;;;;;-5.48;53.87;102834.13;6231857;23;20092;-90
2022/12/04 08:22:50;;;;;;;23.05;8.98;;;;;;;-5.23;54.15;102868.56;6148951;23;20021;-89
2022/12/04 08:31:41;;;;;;;25.58;9.80;;;;;;;-5.67;53.67;102749.41;6183160;23;20088;-90
2022/12/04 08:34:27;;;;;;;21.17;9.93;;;;;;;-5.38;53.76;102810.25;6087999;23;20026;-88
2022/12/04 08:37:44;;;;;;;18.40;8.07;;;;;;;-5.70;54.13;102790.47;6073757;23;20013;-90
2022/12/04 08:49:38;;;;;;;19.50;7.85;;;;;;;-5.76;53.77;102742.16;6013821;23;20075;-89
2022/12/04 08:52:31;;;;;;;23.15;7.53;;;;;;;-5.24;54.01;102810.81;6014091;23;20102;-89
2022/12/04 08:55:39;;;;;;;21.15;7.75;;;;;;;-4.79;53.76;102861.47;6035218;23;20004;-90
2022/12/04 09:02:19;;;;;;;22.08;7.22;;;;;;;-5.02;53.16;102769.94;6227955;23;20024;-90
2022/12/04 09:06:48;;;;;;;23.17;8.05;;;;;;;-4.36;53.20;102855.25;6112089;23;20056;-91
2022/12/04 09:15:45;;;;;;;22.77;8.48;;;;;;;-4.36;52.86;102859.75;6236069;23;20039;-91
2022/12/04 09:19:31;;;;;;;23.35;9.00;;;;;;;-4.52;53.52;102853.00;6229324;23;20032;-91
2022/12/04 09:22:20;;;;;;;18.00;7.63;;;;;;;-5.18;53.42;102741.97;6136178;23;20025;-89
2022/12/04 09:25:12;;;;;;;18.13;7.45;;;;;;;-4.60;53.38;102854.59;6175827;23;20021;-89
2022/12/04 09:28:20;;;;;;;23.35;9.27;;;;;;;-4.73;54.00;102820.91;6184250;23;20051;-88
2022/12/04 09:42:20;;;;;;;22.88;9.50;;;;;;;-4.15;53.30;102849.94;6239524;23;20066;-89
2022/12/04 09:46:43;;;;;;;23.25;8.38;;;;;;;-4.16;53.25;102852.75;6164833;23;20009;-90
2022/12/04 09:56:33;;;;;;;19.30;8.23;;;;;;;-4.09;53.28;102857.44;6189761;23;20036;-90
2022/12/04 09:59:54;;;;;;;21.77;7.85;;;;;;;-4.11;53.16;102840.66;6115945;23;20044;-91
2022/12/04 10:32:23;;;;;;;19.60;7.10;;;;;;;-4.56;52.49;102696.69;6240873;23;20051;-91
2022/12/04 10:36:03;;;;;;;15.90;6.30;;;;;;;-3.93;53.06;102808.88;6240048;22;20074;-89
2022/12/04 10:53:05;;;;;;;15.65;6.78;;;;;;;-3.85;53.15;102809.03;6235236;23;20068;-89
2022/12/04 10:56:24;;;;;;;14.15;6.20;;;;;;;-4.31;52.74;102740.84;6155033;23;20076;-89
2022/12/04 10:59:03;;;;;;;16.50;6.57;;;;;;;-4.38;53.02;102704.09;6131925;23;20114;-91
2022/12/04 11:08:08;;;;;;;16.65;6.55;;;;;;;-3.80;53.43;102780.09;6252828;22;20019;-91
2022/12/04 11:26:42;;;;;;;25.73;6.78;;;;;;;-4.54;54.75;102732.09;6179127;23;20011;-92
2022/12/04 11:49:06;;;;;;;12.77;5.47;;;;;;;-3.95;53.98;102749.34;6210143;22;20032;-91
2022/12/04 11:59:58;;;;;;;16.23;7.55;;;;;;;-4.12;53.84;102732.09;6203455;23;20117;-91
2022/12/04 12:12:10;;;;;;;25.45;8.45;;;;;;;-4.02;54.36;102782.94;6209745;22;20033;-93
2022/12/04 12:15:34;;;;;;;19.85;8.57;;;;;;;-3.96;54.21;102784.25;6180834;23;20001;-90
2022/12/04 12:24:55;;;;;;;14.88;5.75;;;;;;;-4.47;54.23;102707.56;6115318;23;20014;-90
2022/12/04 12:30:45;;;;;;;17.70;7.32;;;;;;;-5.02;54.66;102635.69;6234532;23;20080;-91
2022/12/04 13:13:43;;;;;;;32.65;10.10;;;;;;;-4.81;54.24;102759.28;6221947;22;20086;-92
2022/12/04 13:16:16;;;;;;;34.35;10.48;;;;;;;-5.18;54.66;102721.47;6148774;23;20016;-90
2022/12/04 13:19:09;;;;;;;24.13;9.30;;;;;;;-4.80;54.76;102792.16;6180008;23;20016;-91
2022/12/04 13:22:00;;;;;;;20.88;8.00;;;;;;;-5.23;55.32;102737.88;6104037;23;20044;-89
2022/12/04 13:31:06;;;;;;;18.10;7.38;;;;;;;-5.03;54.45;102751.41;6201206;23;20064;-90
2022/12/04 13:34:16;;;;;;;20.65;6.88;;;;;;;-4.92;54.52;102774.53;6129305;23;20104;-92
2022/12/04 13:37:31;;;;;;;13.75;5.20;;;;;;;-4.85;54.56;102795.22;6205377;23;20073;-89
2022/12/04 13:40:59;;;;;;;18.20;5.88;;;;;;;-4.91;54.65;102787.72;6120802;23;20449;-89
2022/12/04 13:43:43;;;;;;;15.70;6.32;;;;;;;-4.94;54.67;102789.78;6179677;23;20021;-91
2022/12/04 13:46:24;;;;;;;19.67;6.13;;;;;;;-5.07;54.71;102805.94;6206567;23;20025;-92
2022/12/04 13:58:12;;;;;;;17.63;5.80;;;;;;;-5.03;54.72;102796.75;6213396;23;20025;-93
2022/12/04 14:12:54;;;;;;;27.92;9.48;;;;;;;-5.21;54.76;102791.06;6086725;23;20018;-90
2022/12/04 14:15:55;;;;;;;;;;;;;;;;;;;;;
2022/12/04 14:19:43;;;;;;;26.00;8.82;;;;;;;-5.31;54.76;102798.13;6083260;23;20029;-93
2022/12/04 14:25:50;;;;;;;49.15;18.20;;;;;;;-5.31;54.43;102790.97;6229253;22;20039;-90
2022/12/04 14:29:40;;;;;;;41.72;13.45;;;;;;;-5.46;54.77;102785.06;6203175;23;20087;-93
2022/12/04 14:33:15;;;;;;;41.38;14.50;;;;;;;-5.42;54.54;102780.31;6196540;23;20104;-92
2022/12/04 14:36:50;;;;;;;38.55;14.73;;;;;;;-5.58;54.89;102788.69;6086857;23;20077;-94
2022/12/04 14:39:56;;;;;;;29.60;11.88;;;;;;;-5.80;54.78;102764.69;6152517;23;20040;-92
2022/12/04 15:06:49;;;;;;;27.83;7.43;;;;;;;-6.74;55.53;102681.44;6206316;22;20016;-91
2022/12/04 15:13:59;;;;;;;24.48;8.32;;;;;;;-5.77;54.58;102788.44;6248792;23;20050;-94
2022/12/04 15:17:31;;;;;;;22.23;7.38;;;;;;;-5.84;54.77;102787.22;6039920;23;20030;-93
2022/12/04 15:33:06;;;;;;;26.10;6.63;;;;;;;-6.19;55.86;102772.19;6236249;22;20028;-91
2022/12/04 15:35:56;;;;;;;18.40;5.82;;;;;;;-6.71;55.18;102667.06;6149690;23;20024;-92
2022/12/04 15:38:34;;;;;;;24.58;6.53;;;;;;;-6.87;55.56;102660.22;6170237;23;20012;-93
2022/12/04 15:41:49;;;;;;;17.40;6.68;;;;;;;-6.49;55.55;102738.09;6210425;23;20005;-90
2022/12/04 15:48:09;;;;;;;37.15;12.95;;;;;;;-6.39;55.67;102737.31;6175825;23;20020;-90
2022/12/04 15:50:41;;;;;;;48.80;15.38;;;;;;;-6.98;55.26;102660.22;6122510;23;20014;-90
2022/12/04 15:53:26;;;;;;;31.20;11.27;;;;;;;-6.96;55.00;102652.94;6119107;23;20077;-91
2022/12/04 15:56:01;;;;;;;30.55;9.52;;;;;;;-6.42;55.21;102742.03;6099534;23;20022;-93
2022/12/04 15:58:36;;;;;;;20.80;7.05;;;;;;;-7.07;55.39;102654.75;6071467;23;20018;-90
2022/12/04 16:01:11;;;;;;;26.50;8.55;;;;;;;-6.94;55.16;102664.34;6075544;23;20008;-92
2022/12/04 16:03:41;;;;;;;22.55;9.80;;;;;;;-6.22;55.09;102783.94;6127171;23;20002;-92
2022/12/04 16:09:20;;;;;;;19.13;5.70;;;;;;;-6.22;55.41;102783.94;6154622;23;19998;-91
2022/12/04 16:12:42;;;;;;;21.15;7.75;;;;;;;-6.23;55.23;102787.53;6130675;23;20005;-91
2022/12/04 16:15:09;;;;;;;24.60;8.10;;;;;;;-6.21;54.85;102777.63;6120080;23;20305;-91
2022/12/04 16:17:46;;;;;;;32.40;8.25;;;;;;;-6.46;54.64;102733.38;6133906;23;20025;-91
2022/12/04 16:20:18;;;;;;;19.60;6.53;;;;;;;-6.92;54.80;102662.41;6099031;23;20153;-92
2022/12/04 16:22:52;;;;;;;16.55;5.82;;;;;;;-6.58;55.10;102723.69;6103145;23;20005;-91
2022/12/04 16:26:16;;;;;;;19.65;6.50;;;;;;;-6.28;54.88;102779.06;6123230;23;20045;-91
2022/12/04 16:28:44;;;;;;;20.60;6.43;;;;;;;-6.63;54.96;102732.00;6124027;23;20276;-90
2022/12/04 16:31:30;;;;;;;17.52;6.57;;;;;;;-6.54;54.71;102730.47;6097283;23;20013;-89
2022/12/04 16:34:22;;;;;;;17.38;6.25;;;;;;;-6.24;54.64;102785.00;6125645;23;20045;-91
2022/12/04 16:37:20;;;;;;;20.80;6.25;;;;;;;-6.51;54.79;102743.56;5957491;24;20020;-91
2022/12/04 16:39:47;;;;;;;23.55;6.40;;;;;;;-6.79;54.74;102698.72;5943922;24;20028;-89
2022/12/04 16:42:16;;;;;;;20.65;5.55;;;;;;;-6.56;54.76;102743.03;5993435;23;20468;-91
2022/12/04 16:44:53;;;;;;;23.50;6.15;;;;;;;-6.56;54.71;102735.06;5952189;23;20048;-88
2022/12/04 16:51:14;;;;;;;19.42;6.75;;;;;;;-6.75;54.84;102698.38;5971881;23;20011;-90
2022/12/04 16:53:51;;;;;;;25.20;7.88;;;;;;;-6.56;54.88;102750.19;5973418;23;20000;-92
2022/12/04 16:59:47;;;;;;;19.90;6.75;;;;;;;-7.04;55.46;102723.66;6237466;23;20028;-89
2022/12/04 17:02:26;;;;;;;21.75;6.72;;;;;;;-7.54;56.05;102664.44;6189318;23;20024;-92
2022/12/04 17:04:59;;;;;;;21.75;6.47;;;;;;;-6.81;55.89;102765.34;6185526;23;20027;-90
2022/12/04 17:07:26;;;;;;;38.42;9.23;;;;;;;-7.28;55.54;102686.41;6178905;23;20016;-88
2022/12/04 17:10:23;;;;;;;47.55;17.70;;;;;;;-7.33;56.02;102690.25;6214606;23;20030;-88
2022/12/04 17:13:25;;;;;;;44.55;13.75;;;;;;;-7.40;55.97;102688.19;6097707;23;19998;-89
2022/12/04 17:20:27;;;;;;;33.00;9.70;;;;;;;-6.67;55.32;102773.13;6242133;23;20023;-90
2022/12/04 17:23:29;;;;;;;21.80;7.65;;;;;;;-7.28;55.06;102666.03;6126061;23;20033;-92
2022/12/04 17:31:52;;;;;;;19.23;5.43;;;;;;;-6.82;54.59;102757.47;6207523;22;20024;-90
2022/12/04 17:34:24;;;;;;;13.68;6.38;;;;;;;-7.36;55.11;102677.19;6159794;23;20020;-89
2022/12/04 17:36:50;;;;;;;19.50;6.40;;;;;;;-6.67;55.51;102778.47;6158025;23;20027;-90
2022/12/04 17:39:31;;;;;;;17.48;6.45;;;;;;;-6.90;54.71;102724.31;6177898;23;20021;-89
2022/12/04 17:41:58;;;;;;;16.02;5.25;;;;;;;-7.39;54.48;102640.22;6181363;23;20024;-90
2022/12/04 17:44:31;;;;;;;19.67;5.95;;;;;;;-7.10;54.58;102683.25;6205481;23;20021;-90
2022/12/04 17:47:43;;;;;;;14.75;5.72;;;;;;;-7.07;54.64;102678.66;6209462;23;20020;-88
2022/12/04 17:50:14;;;;;;;14.07;5.85;;;;;;;-7.37;54.67;102629.47;6090423;23;20577;-88
2022/12/04 17:53:06;;;;;;;22.55;6.45;;;;;;;-6.59;54.45;102764.56;6109604;23;20018;-90
2022/12/04 17:55:33;;;;;;;20.15;6.20;;;;;;;-6.60;54.19;102754.88;6080067;23;20499;-89
2022/12/04 17:58:02;;;;;;;13.63;5.47;;;;;;;-7.05;54.14;102677.59;6057125;23;20042;-91
2022/12/04 18:00:31;;;;;;;16.85;6.28;;;;;;;-6.79;54.33;102726.16;6113965;23;20069;-89
2022/12/04 18:02:57;;;;;;;19.25;6.82;;;;;;;-7.09;54.34;102674.28;6058901;23;20149;-90
2022/12/04 18:05:24;;;;;;;17.38;6.05;;;;;;;-6.84;54.20;102708.88;6080290;23;20042;-89
2022/12/04 18:07:54;;;;;;;13.00;5.50;;;;;;;-7.20;54.07;102658.31;6081088;23;20022;-90
2022/12/04 18:10:23;;;;;;;16.65;6.20;;;;;;;-6.90;54.52;102700.38;6060511;23;20449;-89
2022/12/04 18:12:51;;;;;;;14.55;6.10;;;;;;;-7.50;54.03;102591.50;6057467;23;20017;-89
2022/12/04 18:15:17;;;;;;;19.15;7.20;;;;;;;-6.71;54.29;102747.72;6108470;23;20029;-89
2022/12/04 18:17:46;;;;;;;23.40;7.40;;;;;;;-6.68;54.24;102744.00;6114595;23;20033;-88
2022/12/04 18:20:15;;;;;;;19.15;7.63;;;;;;;-7.14;54.26;102667.66;6038410;23;20065;-89
2022/12/04 18:22:43;;;;;;;17.00;7.32;;;;;;;-6.94;54.07;102700.72;6061839;23;20082;-91
2022/12/04 18:25:14;;;;;;;15.25;5.95;;;;;;;-7.52;54.19;102625.28;6116199;23;20022;-89
2022/12/04 18:27:45;;;;;;;17.17;6.47;;;;;;;-7.28;54.02;102650.06;6147258;23;20079;-90
2022/12/04 18:30:18;;;;;;;18.25;6.53;;;;;;;-7.42;53.94;102624.50;6154400;23;20042;-89
2022/12/04 18:33:14;;;;;;;14.82;6.70;;;;;;;-6.75;54.12;102737.44;6198892;23;20016;-88
2022/12/04 18:36:11;;;;;;;16.50;6.70;;;;;;;-6.74;53.99;102739.13;6143669;23;20028;-89
2022/12/04 18:38:41;;;;;;;18.52;6.35;;;;;;;-6.94;53.80;102698.06;6090484;23;20041;-91
2022/12/04 18:41:10;;;;;;;16.13;6.43;;;;;;;-7.25;54.08;102654.28;6061104;23;20036;-90
2022/12/04 18:43:43;;;;;;;15.68;6.50;;;;;;;-7.46;53.76;102624.84;6086494;23;20503;-91
2022/12/04 18:46:17;;;;;;;19.73;7.03;;;;;;;-7.14;54.01;102697.72;6080951;23;20503;-89
2022/12/04 18:49:00;;;;;;;24.50;5.97;;;;;;;-7.18;54.53;102696.28;6060915;23;20037;-91
2022/12/04 18:51:48;;;;;;;22.20;6.63;;;;;;;-6.84;54.33;102738.97;6079113;23;20426;-89
2022/12/04 18:54:26;;;;;;;17.65;5.95;;;;;;;-6.87;54.09;102733.88;6033474;23;20018;-91
2022/12/04 18:56:58;;;;;;;14.25;6.07;;;;;;;-7.50;54.00;102634.00;6126752;23;20084;-90
2022/12/04 19:03:47;;;;;;;15.77;6.30;;;;;;;-7.66;54.37;102650.22;6110420;23;20034;-88
2022/12/04 19:17:22;;;;;;;18.88;5.93;;;;;;;-7.10;54.46;102723.13;6090691;23;20033;-90
2022/12/04 19:30:17;;;;;;;16.75;6.45;;;;;;;-7.17;54.53;102719.22;6232210;23;20040;-92
2022/12/04 19:34:03;;;;;;;20.15;6.40;;;;;;;-7.15;54.66;102714.66;6241986;23;19997;-89
2022/12/04 19:38:00;;;;;;;18.10;6.60;;;;;;;-7.42;54.58;102685.63;6241122;23;20000;-89
2022/12/04 19:44:48;;;;;;;20.20;7.32;;;;;;;-7.95;54.72;102585.94;6207536;23;20036;-89
2022/12/04 19:47:43;;;;;;;17.88;6.88;;;;;;;-7.16;54.68;102707.63;6186146;23;20009;-87
2022/12/04 19:50:14;;;;;;;20.92;8.57;;;;;;;-7.15;54.47;102709.34;6162958;23;20021;-88
2022/12/04 19:52:44;;;;;;;30.17;9.38;;;;;;;-7.45;54.35;102661.06;6198867;23;20017;-89
2022/12/04 19:55:51;;;;;;;23.50;8.30;;;;;;;-7.16;54.49;102712.09;6159724;23;20016;-89
2022/12/04 19:59:04;;;;;;;19.67;6.38;;;;;;;-7.18;54.47;102703.41;6180251;23;20001;-89
2022/12/04 20:01:54;;;;;;;22.45;6.60;;;;;;;-7.95;54.63;102591.25;6148163;23;20027;-90
2022/12/04 20:08:45;;;;;;;20.73;6.43;;;;;;;-8.16;54.24;102545.88;6204539;23;20040;-89
2022/12/04 20:11:39;;;;;;;22.92;7.95;;;;;;;-7.88;54.35;102587.19;6157964;23;20004;-91
2022/12/04 20:14:09;;;;;;;18.00;7.72;;;;;;;-7.46;54.22;102662.88;6203210;23;20017;-88
2022/12/04 20:16:49;;;;;;;22.85;8.20;;;;;;;-7.39;54.55;102674.75;6153654;23;20017;-88
2022/12/04 20:19:55;;;;;;;20.88;8.23;;;;;;;-7.24;54.47;102698.53;6189858;23;20028;-88
2022/12/04 20:25:42;;;;;;;19.17;7.78;;;;;;;-7.30;54.53;102704.31;6188484;23;19997;-94
2022/12/04 20:29:40;;;;;;;18.52;6.97;;;;;;;-7.29;54.52;102703.34;6166242;23;20035;-90
2022/12/04 20:32:35;;;;;;;18.75;6.72;;;;;;;-7.58;54.61;102651.38;6168832;23;20043;-90
2022/12/04 20:35:54;;;;;;;17.50;7.10;;;;;;;-7.34;54.36;102701.88;6170549;23;20049;-88
2022/12/04 20:39:20;;;;;;;18.52;6.75;;;;;;;-7.71;54.16;102633.78;6208223;23;20029;-87
2022/12/04 20:57:50;;;;;;;18.77;7.80;;;;;;;-7.64;54.52;102667.75;6210448;22;20035;-89
2022/12/04 21:01:33;;;;;;;22.95;6.40;;;;;;;-7.39;54.56;102703.16;6210250;23;20051;-91
2022/12/04 21:16:27;;;;;;;20.25;7.10;;;;;;;-7.80;54.57;102632.63;6152648;23;20026;-88
2022/12/04 21:23:15;;;;;;;17.33;7.07;;;;;;;-8.09;54.56;102593.09;6054635;23;20031;-91
2022/12/04 21:26:13;;;;;;;18.83;7.32;;;;;;;-7.91;54.52;102613.97;6027331;23;20036;-91
2022/12/04 21:28:39;;;;;;;24.40;8.38;;;;;;;-7.88;54.52;102619.03;6034174;23;20019;-90
2022/12/04 21:31:27;;;;;;;17.58;8.18;;;;;;;-7.44;54.55;102686.72;6053530;23;20059;-91
2022/12/04 21:33:59;;;;;;;22.30;7.78;;;;;;;-8.19;54.38;102560.22;6049940;23;20031;-91
2022/12/04 21:36:32;;;;;;;22.58;7.15;;;;;;;-7.68;54.61;102649.47;6050740;23;20019;-90
2022/12/04 21:38:59;;;;;;;23.92;7.97;;;;;;;-7.78;54.57;102637.81;6002469;23;20446;-91
2022/12/04 21:44:34;;;;;;;30.42;8.63;;;;;;;-7.53;54.66;102680.25;6061344;23;20014;-89
2022/12/04 21:47:03;;;;;;;22.77;9.15;;;;;;;-7.55;54.98;102663.56;6057101;23;20029;-90
2022/12/04 21:49:55;;;;;;;21.35;7.72;;;;;;;-7.63;54.67;102666.78;6056404;23;20023;-91
2022/12/04 21:52:22;;;;;;;23.70;8.02;;;;;;;-8.13;54.59;102580.16;6055209;23;20018;-91
2022/12/04 21:55:14;;;;;;;19.10;8.73;;;;;;;-7.63;54.75;102658.81;6101912;23;20034;-92
2022/12/04 21:58:05;;;;;;;20.17;7.95;;;;;;;-7.61;54.78;102658.72;6075570;23;20030;-91
2022/12/04 22:00:33;;;;;;;22.27;7.32;;;;;;;-8.03;54.57;102578.53;6180692;23;20025;-94
2022/12/04 22:03:14;;;;;;;25.13;8.07;;;;;;;-7.89;54.23;102598.78;6140334;23;20024;-90